Time,TemperatureF,DewpointF,PressureIn,WindDirection,WindDirectionDegrees,WindSpeedMPH,WindSpeedGustMPH,Humidity,HourlyPrecipIn,Conditions,Clouds,dailyrainin,SoftwareType,DateUTC
2013-01-02 00:00:00,7.2,2.6,30.20,SSW,202,7.0,8.0,81,0.00,,---,0.00,VWS V14.01,2013-01-02 06:00:00,
2013-01-02 00:15:00,7.6,3.0,30.20,SSW,202,7.0,10.0,81,0.00,,---,0.00,VWS V14.01,2013-01-02 06:15:00,
2013-01-02 00:30:00,8.0,3.4,30.20,South,180,8.0,10.0,81,0.00,,---,0.00,VWS V14.01,2013-01-02 06:30:00,
2013-01-02 00:45:00,8.6,4.0,30.19,South,180,7.0,10.0,81,0.00,,---,0.00,VWS V14.01,2013-01-02 06:45:00,
2013-01-02 01:00:00,9.3,4.9,30.20,South,180,8.0,12.0,82,0.00,,---,0.00,VWS V14.01,2013-01-02 07:00:00,
2013-01-02 01:15:00,9.8,5.2,30.20,South,180,9.0,12.0,81,0.00,,---,0.00,VWS V14.01,2013-01-02 07:15:00,
2013-01-02 01:30:00,10.0,5.3,30.20,SSW,202,8.0,11.0,81,0.00,,---,0.00,VWS V14.01,2013-01-02 07:30:00,
2013-01-02 01:45:00,10.2,5.5,30.19,SSW,202,7.0,9.0,81,0.00,,---,0.00,VWS V14.01,2013-01-02 07:45:00,
2013-01-02 02:00:00,10.5,6.1,30.20,SSW,202,7.0,9.0,82,0.00,,---,0.00,VWS V14.01,2013-01-02 08:00:00,
2013-01-02 02:15:00,10.8,6.4,30.20,SSW,202,7.0,8.0,82,0.00,,---,0.00,VWS V14.01,2013-01-02 08:15:00,
2013-01-02 02:30:00,11.2,7.1,30.21,SSW,202,7.0,9.0,83,0.00,,---,0.00,VWS V14.01,2013-01-02 08:30:00,
2013-01-02 02:45:00,11.4,7.2,30.21,SSW,202,7.0,9.0,83,0.00,,---,0.00,VWS V14.01,2013-01-02 08:45:00,
2013-01-02 03:00:00,11.9,7.7,30.21,SSW,202,7.0,8.0,83,0.00,,---,0.00,VWS V14.01,2013-01-02 09:00:00,
2013-01-02 03:15:00,12.1,8.2,30.21,SSW,202,6.0,9.0,84,0.00,,---,0.00,VWS V14.01,2013-01-02 09:15:00,
2013-01-02 03:30:00,12.1,8.2,30.22,SSW,202,7.0,10.0,84,0.00,,---,0.00,VWS V14.01,2013-01-02 09:30:00,
2013-01-02 03:45:00,12.1,8.5,30.21,South,180,7.0,9.0,85,0.00,,---,0.00,VWS V14.01,2013-01-02 09:45:00,
2013-01-02 04:00:00,12.2,8.6,30.21,South,180,5.0,8.0,85,0.00,,---,0.00,VWS V14.01,2013-01-02 10:00:00,
2013-01-02 04:15:00,12.2,8.6,30.20,South,180,6.0,8.0,85,0.00,,---,0.00,VWS V14.01,2013-01-02 10:15:00,
2013-01-02 04:30:00,12.3,8.9,30.21,South,180,4.0,6.0,86,0.00,,---,0.00,VWS V14.01,2013-01-02 10:30:00,
2013-01-02 04:45:00,12.6,9.2,30.21,South,180,4.0,7.0,86,0.00,,---,0.00,VWS V14.01,2013-01-02 10:45:00,
2013-01-02 05:00:00,12.8,9.7,30.20,South,180,4.0,6.0,87,0.00,,---,0.00,VWS V14.01,2013-01-02 11:00:00,
2013-01-02 05:15:00,13.2,10.3,30.20,South,180,2.0,4.0,88,0.00,,---,0.00,VWS V14.01,2013-01-02 11:15:00,
2013-01-02 05:30:00,13.9,11.0,30.20,South,180,4.0,7.0,88,0.00,,---,0.00,VWS V14.01,2013-01-02 11:30:00,
2013-01-02 05:45:00,14.0,11.1,30.20,South,180,4.0,6.0,88,0.00,,---,0.00,VWS V14.01,2013-01-02 11:45:00,
2013-01-02 06:00:00,13.8,10.6,30.19,South,180,4.0,6.0,87,0.00,,---,0.00,VWS V14.01,2013-01-02 12:00:00,
2013-01-02 06:15:00,13.8,10.9,30.20,South,180,5.0,7.0,88,0.00,,---,0.00,VWS V14.01,2013-01-02 12:15:00,
2013-01-02 06:30:00,14.0,11.1,30.21,South,180,6.0,8.0,88,0.00,,---,0.00,VWS V14.01,2013-01-02 12:30:00,
2013-01-02 06:45:00,14.2,11.3,30.20,South,180,6.0,8.0,88,0.00,,---,0.00,VWS V14.01,2013-01-02 12:45:00,
2013-01-02 07:00:00,14.4,11.5,30.20,South,180,5.0,7.0,88,0.00,,---,0.00,VWS V14.01,2013-01-02 13:00:00,
2013-01-02 07:15:00,14.4,11.5,30.21,South,180,5.0,6.0,88,0.00,,---,0.00,VWS V14.01,2013-01-02 13:15:00,
2013-01-02 07:30:00,14.4,11.5,30.20,South,180,3.0,6.0,88,0.00,,---,0.00,VWS V14.01,2013-01-02 13:30:00,
2013-01-02 07:45:00,14.4,11.5,30.20,South,180,4.0,6.0,88,0.00,,---,0.00,VWS V14.01,2013-01-02 13:45:00,
2013-01-02 08:00:00,14.6,11.7,30.20,South,180,5.0,7.0,88,0.00,,---,0.00,VWS V14.01,2013-01-02 14:00:00,
2013-01-02 08:15:00,14.8,12.1,30.20,South,180,5.0,7.0,89,0.00,,---,0.00,VWS V14.01,2013-01-02 14:15:00,
2013-01-02 08:30:00,15.2,12.6,30.20,South,180,3.0,6.0,89,0.00,,---,0.00,VWS V14.01,2013-01-02 14:30:00,
2013-01-02 08:45:00,15.5,12.6,30.20,South,180,3.0,6.0,88,0.00,,---,0.00,VWS V14.01,2013-01-02 14:45:00,
2013-01-02 09:00:00,15.8,12.9,30.20,South,180,2.0,5.0,88,0.00,,---,0.00,VWS V14.01,2013-01-02 15:00:00,
2013-01-02 09:15:00,16.3,13.4,30.21,South,180,5.0,8.0,88,0.00,,---,0.00,VWS V14.01,2013-01-02 15:15:00,
2013-01-02 09:30:00,16.7,13.8,30.21,South,180,5.0,7.0,88,0.00,,---,0.00,VWS V14.01,2013-01-02 15:30:00,
2013-01-02 09:45:00,17.2,14.3,30.20,South,180,5.0,7.0,88,0.00,,---,0.00,VWS V14.01,2013-01-02 15:45:00,
2013-01-02 10:00:00,17.7,14.5,30.20,South,180,4.0,9.0,87,0.00,,---,0.00,VWS V14.01,2013-01-02 16:00:00,
2013-01-02 10:15:00,18.1,14.6,30.20,South,180,6.0,10.0,86,0.00,,---,0.00,VWS V14.01,2013-01-02 16:15:00,
2013-01-02 10:30:00,17.9,14.4,30.19,South,180,7.0,11.0,86,0.00,,---,0.00,VWS V14.01,2013-01-02 16:30:00,
2013-01-02 10:45:00,18.4,14.6,30.18,South,180,8.0,13.0,85,0.00,,---,0.00,VWS V14.01,2013-01-02 16:45:00,
2013-01-02 11:00:00,18.9,15.1,30.18,South,180,8.0,13.0,85,0.00,,---,0.00,VWS V14.01,2013-01-02 17:00:00,
2013-01-02 11:15:00,19.0,14.7,30.17,South,180,9.0,13.0,83,0.00,,---,0.00,VWS V14.01,2013-01-02 17:15:00,
2013-01-02 11:30:00,19.3,14.7,30.16,South,180,9.0,13.0,82,0.00,,---,0.00,VWS V14.01,2013-01-02 17:30:00,
2013-01-02 11:45:00,19.3,14.7,30.16,South,180,9.0,13.0,82,0.00,,---,0.00,VWS V14.01,2013-01-02 17:45:00,
2013-01-02 12:00:00,19.8,14.9,30.15,South,180,11.0,18.0,81,0.00,,---,0.00,VWS V14.01,2013-01-02 18:00:00,
2013-01-02 12:15:00,20.2,15.3,30.14,South,180,11.0,19.0,81,0.00,,---,0.00,VWS V14.01,2013-01-02 18:15:00,
2013-01-02 12:30:00,20.7,15.8,30.14,South,180,10.0,15.0,81,0.00,,---,0.00,VWS V14.01,2013-01-02 18:30:00,
2013-01-02 12:45:00,20.6,15.1,30.13,South,180,11.0,15.0,79,0.00,,---,0.00,VWS V14.01,2013-01-02 18:45:00,
2013-01-02 13:00:00,20.7,14.9,30.12,South,180,11.0,16.0,78,0.00,,---,0.00,VWS V14.01,2013-01-02 19:00:00,
2013-01-02 13:15:00,20.8,14.7,30.12,South,180,10.0,15.0,77,0.00,,---,0.00,VWS V14.01,2013-01-02 19:15:00,
2013-01-02 13:30:00,20.9,14.5,30.11,South,180,10.0,13.0,76,0.00,,---,0.00,VWS V14.01,2013-01-02 19:30:00,
2013-01-02 13:45:00,20.9,13.9,30.12,South,180,9.0,14.0,74,0.00,,---,0.00,VWS V14.01,2013-01-02 19:45:00,
2013-01-02 14:00:00,20.9,13.0,30.11,South,180,9.0,14.0,71,0.00,,---,0.00,VWS V14.01,2013-01-02 20:00:00,
2013-01-02 14:15:00,21.0,12.4,30.11,South,180,9.0,13.0,69,0.00,,---,0.00,VWS V14.01,2013-01-02 20:15:00,
2013-01-02 14:30:00,19.9,11.7,30.11,South,180,9.0,14.0,70,0.00,,---,0.00,VWS V14.01,2013-01-02 20:30:00,
2013-01-02 14:45:00,20.2,12.6,30.11,South,180,8.0,11.0,72,0.00,,---,0.00,VWS V14.01,2013-01-02 20:45:00,
2013-01-02 15:15:00,20.9,12.7,30.11,South,180,8.0,12.0,70,0.00,,---,0.00,VWS V14.01,2013-01-02 21:15:00,
2013-01-02 15:30:00,21.0,13.1,30.11,South,180,8.0,12.0,71,0.00,,---,0.00,VWS V14.01,2013-01-02 21:30:00,
2013-01-02 15:45:00,21.0,12.4,30.12,South,180,9.0,13.0,69,0.00,,---,0.00,VWS V14.01,2013-01-02 21:45:00,
2013-01-02 16:00:00,20.8,13.2,30.12,South,180,8.0,15.0,72,0.00,,---,0.00,VWS V14.01,2013-01-02 22:00:00,
2013-01-02 16:15:00,20.7,13.1,30.12,South,180,7.0,13.0,72,0.00,,---,0.00,VWS V14.01,2013-01-02 22:15:00,
2013-01-02 16:30:00,20.6,13.0,30.11,South,180,7.0,11.0,72,0.00,,---,0.00,VWS V14.01,2013-01-02 22:30:00,
2013-01-02 16:45:00,20.4,13.1,30.11,South,180,5.0,9.0,73,0.00,,---,0.00,VWS V14.01,2013-01-02 22:45:00,
2013-01-02 17:00:00,20.2,13.6,30.12,South,180,3.0,6.0,75,0.00,,---,0.00,VWS V14.01,2013-01-02 23:00:00,
2013-01-02 17:15:00,20.3,13.7,30.11,South,180,4.0,6.0,75,0.00,,---,0.00,VWS V14.01,2013-01-02 23:15:00,
2013-01-02 17:30:00,20.4,13.4,30.11,South,180,4.0,7.0,74,0.00,,---,0.00,VWS V14.01,2013-01-02 23:30:00,
2013-01-02 17:45:00,20.6,13.6,30.12,South,180,3.0,6.0,74,0.00,,---,0.00,VWS V14.01,2013-01-02 23:45:00,
2013-01-02 18:00:00,20.7,14.0,30.11,South,180,3.0,6.0,75,0.00,,---,0.00,VWS V14.01,2013-01-03 00:00:00,
2013-01-02 18:15:00,21.1,14.7,30.11,South,180,5.0,7.0,76,0.00,,---,0.00,VWS V14.01,2013-01-03 00:15:00,
2013-01-02 18:30:00,21.3,15.2,30.11,South,180,6.0,8.0,77,0.00,,---,0.00,VWS V14.01,2013-01-03 00:30:00,
2013-01-02 18:45:00,21.4,15.3,30.11,South,180,6.0,9.0,77,0.00,,---,0.00,VWS V14.01,2013-01-03 00:45:00,
2013-01-02 19:00:00,21.3,15.2,30.11,South,180,7.0,11.0,77,0.00,,---,0.00,VWS V14.01,2013-01-03 01:00:00,
2013-01-02 19:15:00,20.8,14.7,30.11,SSW,202,8.0,11.0,77,0.00,,---,0.00,VWS V14.01,2013-01-03 01:15:00,
2013-01-02 19:30:00,20.5,15.0,30.10,SSW,202,8.0,11.0,79,0.00,,---,0.00,VWS V14.01,2013-01-03 01:30:00,
2013-01-02 19:45:00,20.3,15.1,30.11,SSW,202,8.0,11.0,80,0.00,,---,0.00,VWS V14.01,2013-01-03 01:45:00,
2013-01-02 20:00:00,20.2,15.0,30.11,SSW,202,8.0,12.0,80,0.00,,---,0.00,VWS V14.01,2013-01-03 02:00:00,
2013-01-02 20:15:00,20.0,15.1,30.10,SSW,202,8.0,11.0,81,0.00,,---,0.00,VWS V14.01,2013-01-03 02:15:00,
2013-01-02 20:30:00,20.1,15.5,30.09,SSW,202,8.0,11.0,82,0.00,,---,0.00,VWS V14.01,2013-01-03 02:30:00,
2013-01-02 20:45:00,20.3,15.7,30.10,SSW,202,8.0,12.0,82,0.00,,---,0.00,VWS V14.01,2013-01-03 02:45:00,
2013-01-02 21:00:00,20.3,16.0,30.10,SSW,202,7.0,11.0,83,0.00,,---,0.00,VWS V14.01,2013-01-03 03:00:00,
2013-01-02 21:15:00,20.4,15.8,30.10,SSW,202,8.0,12.0,82,0.00,,---,0.00,VWS V14.01,2013-01-03 03:15:00,
2013-01-02 21:30:00,20.4,16.1,30.10,SW,225,8.0,13.0,83,0.00,,---,0.00,VWS V14.01,2013-01-03 03:30:00,
2013-01-02 21:45:00,20.4,16.1,30.10,SSW,202,8.0,12.0,83,0.00,,---,0.00,VWS V14.01,2013-01-03 03:45:00,
2013-01-02 22:00:00,20.4,16.1,30.09,SSW,202,8.0,11.0,83,0.00,,---,0.00,VWS V14.01,2013-01-03 04:00:00,
2013-01-02 22:15:00,20.3,16.2,30.09,SSW,202,8.0,12.0,84,0.00,,---,0.00,VWS V14.01,2013-01-03 04:15:00,
2013-01-02 22:30:00,20.4,16.4,30.10,SW,225,8.0,10.0,84,0.00,,---,0.00,VWS V14.01,2013-01-03 04:30:00,
2013-01-02 22:45:00,20.3,16.2,30.10,SW,225,7.0,9.0,84,0.00,,---,0.00,VWS V14.01,2013-01-03 04:45:00,
2013-01-02 23:00:00,20.3,16.2,30.10,SW,225,7.0,11.0,84,0.00,,---,0.00,VWS V14.01,2013-01-03 05:00:00,
2013-01-02 23:15:00,20.1,16.0,30.10,SW,225,7.0,10.0,84,0.00,,---,0.00,VWS V14.01,2013-01-03 05:15:00,
2013-01-02 23:30:00,19.3,15.0,30.10,SW,225,7.0,11.0,83,0.00,,---,0.00,VWS V14.01,2013-01-03 05:30:00,
2013-01-02 23:45:00,17.8,13.8,30.10,SW,225,5.0,8.0,84,0.00,,---,0.00,VWS V14.01,2013-01-03 05:45:00,